Finest — WCW8374 — position and weather

sailwx.info

Track history (hours):
 
Tides and Currents Weather Stations Pressure Air Temp Water Temp Dewpoint Dewpoint Depression Visibility Wind Speed Wind Dir Waves Ship Positions

Finest

Owner: NEW YORK FAST FERRY SERVICES INC, MAMARONECK, NY. More information available from US FCC via Universal Licensing System and Coast Guard Vessel Documentation Center.

Last reported at 2014-Oct-30 22:32 UTC. Time now 2014-Oct-31 08:36 UTC.
Position N 40°36' W 074°03'.

Length 38 m.

Type: High speed craft. MMSI: 366990590.

Date/timePositionNaut miles runAvg speedWind from/ knotsBaromVisibWave heightAir tempDewpointWater temp
2014-Oct-30 22:32N 40°36' W 074°03'10 8.1
2014-Oct-30 21:17N 40°26' W 074°05'1622.0
2014-Oct-30 20:34N 40°42' W 074°01'4 4.4
2014-Oct-30 19:33N 40°46' W 074°01'0 0.0
2014-Oct-30 18:33N 40°46' W 074°01'0 0.0
2014-Oct-30 17:33N 40°46' W 074°01'0 0.0
2014-Oct-30 16:33N 40°46' W 074°01'0 0.0
2014-Oct-30 15:34N 40°46' W 074°01'0 0.0
2014-Oct-30 14:34N 40°46' W 074°01'0 0.0
2014-Oct-30 13:34N 40°46' W 074°01'9 9.2
2014-Oct-30 12:33N 40°37' W 074°03'0 0.5
2014-Oct-30 11:33N 40°38' W 074°03'2 0.1
2014-Oct-29 22:33N 40°36' W 074°03'5 4.7
2014-Oct-29 21:32N 40°31' W 074°04'1110.8
2014-Oct-29 20:34N 40°42' W 074°01'5 4.6
2014-Oct-29 19:33N 40°46' W 074°01'0 0.0
2014-Oct-29 18:33N 40°46' W 074°01'0 0.0
2014-Oct-29 17:33N 40°46' W 074°01'0 0.0
2014-Oct-29 16:33N 40°46' W 074°01'0 0.0
2014-Oct-29 15:33N 40°46' W 074°01'2 2.0
2014-Oct-29 14:33N 40°44' W 074°01'12 8.1
2014-Oct-29 13:06N 40°33' W 074°03'1222.4
2014-Oct-29 12:34N 40°45' W 074°01'2 0.9
2014-Oct-29 10:33N 40°43' W 074°01'7 0.5
2014-Oct-28 22:34N 40°36' W 074°03'8 7.8
2014-Oct-28 21:33N 40°29' W 074°04'1313.3
2014-Oct-28 20:33N 40°42' W 074°00'5 4.7
2014-Oct-28 19:33N 40°46' W 074°01'0 0.0
2014-Oct-28 18:34N 40°46' W 074°01'0 0.0
2014-Oct-28 17:34N 40°46' W 074°01'0 0.0
2014-Oct-28 16:34N 40°46' W 074°01'0 0.0
2014-Oct-28 15:34N 40°46' W 074°01'0 0.0
2014-Oct-28 14:33N 40°46' W 074°01'4 3.6
2014-Oct-28 13:33N 40°43' W 074°02'4 4.3
2014-Oct-28 12:34N 40°39' W 074°02'2 1.6
2014-Oct-28 11:33N 40°37' W 074°03'1111.0
2014-Oct-28 10:33N 40°26' W 074°05'0 0.1
2014-Oct-28 09:30N 40°26' W 074°05'10 0.9
2014-Oct-27 22:32N 40°36' W 074°03'5 2.7
2014-Oct-27 20:33N 40°41' W 074°01'5 4.9
2014-Oct-27 19:31N 40°46' W 074°01'0 0.0
2014-Oct-27 18:33N 40°46' W 074°01'0 0.0
2014-Oct-27 17:33N 40°46' W 074°01'0 0.0
2014-Oct-27 16:33N 40°46' W 074°01'0 0.0
2014-Oct-27 15:30N 40°46' W 074°01'0 0.0
2014-Oct-27 14:32N 40°46' W 074°01'0 0.0
2014-Oct-27 13:31N 40°46' W 074°01'8 8.6
2014-Oct-27 12:33N 40°38' W 074°03'1 1.4
2014-Oct-27 11:34N 40°37' W 074°03'  
2014-Oct-24 22:31N 40°36' W 074°03'5 2.5
2014-Oct-24 20:34N 40°41' W 074°01'5 5.2
2014-Oct-24 19:33N 40°46' W 074°01'0 0.0
2014-Oct-24 18:34N 40°46' W 074°01'0 0.0
2014-Oct-24 17:33N 40°46' W 074°01'0 0.0
2014-Oct-24 16:33N 40°46' W 074°01'0 0.0
2014-Oct-24 15:34N 40°46' W 074°01'1 0.7
2014-Oct-24 14:33N 40°46' W 074°00'11 7.6
2014-Oct-24 13:09N 40°35' W 074°03'5 7.8
2014-Oct-24 12:34N 40°40' W 074°02'4 3.6
2014-Oct-24 11:34N 40°36' W 074°03'1 0.1
2014-Oct-23 22:32N 40°35' W 074°03'6 3.2
2014-Oct-23 20:34N 40°41' W 074°01'4 4.4
2014-Oct-23 19:33N 40°46' W 074°00'1 1.4
2014-Oct-23 18:33N 40°47' W 073°60'1 0.2
2014-Oct-23 13:16N 40°46' W 074°01'811.8
2014-Oct-23 12:33N 40°38' W 074°03'1 0.7
2014-Oct-23 11:34N 40°39' W 074°02'13 1.0
2014-Oct-22 23:03N 40°26' W 074°05'1020.6
2014-Oct-22 22:33N 40°36' W 074°03'6 2.9
2014-Oct-22 20:33N 40°42' W 074°01'5 4.5
2014-Oct-22 19:33N 40°46' W 074°01'0 0.0
2014-Oct-22 18:33N 40°46' W 074°01'0 0.0
2014-Oct-22 17:33N 40°46' W 074°01'0 0.0
2014-Oct-22 16:33N 40°46' W 074°01'0 0.0
2014-Oct-22 15:33N 40°46' W 074°01'1 0.7
2014-Oct-22 14:34N 40°46' W 074°00'11 7.9
2014-Oct-22 13:12N 40°35' W 074°03'3 4.7
2014-Oct-22 12:33N 40°38' W 074°03'1 1.3
2014-Oct-22 11:33N 40°37' W 074°03'1110.9
2014-Oct-22 10:33N 40°26' W 074°05'10 0.8
2014-Oct-21 22:33N 40°36' W 074°03'4 4.3
2014-Oct-21 21:32N 40°31' W 074°03'1010.3
2014-Oct-21 20:34N 40°41' W 074°01'5 5.1
2014-Oct-21 19:32N 40°46' W 074°01'0 0.0
2014-Oct-21 18:33N 40°46' W 074°01'0 0.0
2014-Oct-21 17:33N 40°46' W 074°01'0 0.0
2014-Oct-21 16:33N 40°46' W 074°01'0 0.0
2014-Oct-21 15:31N 40°46' W 074°01'0 0.0
2014-Oct-21 14:33N 40°46' W 074°01'0 0.0
2014-Oct-21 13:33N 40°46' W 074°01'7 6.7
2014-Oct-21 12:34N 40°40' W 074°02'4 3.9
2014-Oct-21 11:33N 40°36' W 074°03'10 9.9
2014-Oct-21 10:33N 40°26' W 074°05'10 0.8
2014-Oct-20 22:33N 40°36' W 074°03'  
Track history (hours):
 
Tides and Currents Weather Stations Pressure Air Temp Water Temp Dewpoint Dewpoint Depression Visibility Wind Speed Wind Dir Waves Ship Positions

Finest

Owner: NEW YORK FAST FERRY SERVICES INC, MAMARONECK, NY. More information available from US FCC via Universal Licensing System and Coast Guard Vessel Documentation Center.

Last reported at 2014-Oct-30 22:32 UTC. Time now 2014-Oct-31 08:36 UTC.
Position N 40°36' W 074°03'.

Length 38 m.

Type: High speed craft. MMSI: 366990590.

Date/timePositionNaut miles runAvg speedWind from/ knotsBaromVisibWave heightAir tempDewpointWater temp
2014-Oct-30 22:32N 40°36' W 074°03'10 8.1
2014-Oct-30 21:17N 40°26' W 074°05'1622.0
2014-Oct-30 20:34N 40°42' W 074°01'4 4.4
2014-Oct-30 19:33N 40°46' W 074°01'0 0.0
2014-Oct-30 18:33N 40°46' W 074°01'0 0.0
2014-Oct-30 17:33N 40°46' W 074°01'0 0.0
2014-Oct-30 16:33N 40°46' W 074°01'0 0.0
2014-Oct-30 15:34N 40°46' W 074°01'0 0.0
2014-Oct-30 14:34N 40°46' W 074°01'0 0.0
2014-Oct-30 13:34N 40°46' W 074°01'9 9.2
2014-Oct-30 12:33N 40°37' W 074°03'0 0.5
2014-Oct-30 11:33N 40°38' W 074°03'2 0.1
2014-Oct-29 22:33N 40°36' W 074°03'5 4.7
2014-Oct-29 21:32N 40°31' W 074°04'1110.8
2014-Oct-29 20:34N 40°42' W 074°01'5 4.6
2014-Oct-29 19:33N 40°46' W 074°01'0 0.0
2014-Oct-29 18:33N 40°46' W 074°01'0 0.0
2014-Oct-29 17:33N 40°46' W 074°01'0 0.0
2014-Oct-29 16:33N 40°46' W 074°01'0 0.0
2014-Oct-29 15:33N 40°46' W 074°01'2 2.0
2014-Oct-29 14:33N 40°44' W 074°01'12 8.1
2014-Oct-29 13:06N 40°33' W 074°03'1222.4
2014-Oct-29 12:34N 40°45' W 074°01'2 0.9
2014-Oct-29 10:33N 40°43' W 074°01'7 0.5
2014-Oct-28 22:34N 40°36' W 074°03'8 7.8
2014-Oct-28 21:33N 40°29' W 074°04'1313.3
2014-Oct-28 20:33N 40°42' W 074°00'5 4.7
2014-Oct-28 19:33N 40°46' W 074°01'0 0.0
2014-Oct-28 18:34N 40°46' W 074°01'0 0.0
2014-Oct-28 17:34N 40°46' W 074°01'0 0.0
2014-Oct-28 16:34N 40°46' W 074°01'0 0.0
2014-Oct-28 15:34N 40°46' W 074°01'0 0.0
2014-Oct-28 14:33N 40°46' W 074°01'4 3.6
2014-Oct-28 13:33N 40°43' W 074°02'4 4.3
2014-Oct-28 12:34N 40°39' W 074°02'2 1.6
2014-Oct-28 11:33N 40°37' W 074°03'1111.0
2014-Oct-28 10:33N 40°26' W 074°05'0 0.1
2014-Oct-28 09:30N 40°26' W 074°05'10 0.9
2014-Oct-27 22:32N 40°36' W 074°03'5 2.7
2014-Oct-27 20:33N 40°41' W 074°01'5 4.9
2014-Oct-27 19:31N 40°46' W 074°01'0 0.0
2014-Oct-27 18:33N 40°46' W 074°01'0 0.0
2014-Oct-27 17:33N 40°46' W 074°01'0 0.0
2014-Oct-27 16:33N 40°46' W 074°01'0 0.0
2014-Oct-27 15:30N 40°46' W 074°01'0 0.0
2014-Oct-27 14:32N 40°46' W 074°01'0 0.0
2014-Oct-27 13:31N 40°46' W 074°01'8 8.6
2014-Oct-27 12:33N 40°38' W 074°03'1 1.4
2014-Oct-27 11:34N 40°37' W 074°03'  
2014-Oct-24 22:31N 40°36' W 074°03'5 2.5
2014-Oct-24 20:34N 40°41' W 074°01'5 5.2
2014-Oct-24 19:33N 40°46' W 074°01'0 0.0
2014-Oct-24 18:34N 40°46' W 074°01'0 0.0
2014-Oct-24 17:33N 40°46' W 074°01'0 0.0
2014-Oct-24 16:33N 40°46' W 074°01'0 0.0
2014-Oct-24 15:34N 40°46' W 074°01'1 0.7
2014-Oct-24 14:33N 40°46' W 074°00'11 7.6
2014-Oct-24 13:09N 40°35' W 074°03'5 7.8
2014-Oct-24 12:34N 40°40' W 074°02'4 3.6
2014-Oct-24 11:34N 40°36' W 074°03'1 0.1
2014-Oct-23 22:32N 40°35' W 074°03'6 3.2
2014-Oct-23 20:34N 40°41' W 074°01'4 4.4
2014-Oct-23 19:33N 40°46' W 074°00'1 1.4
2014-Oct-23 18:33N 40°47' W 073°60'1 0.2
2014-Oct-23 13:16N 40°46' W 074°01'811.8
2014-Oct-23 12:33N 40°38' W 074°03'1 0.7
2014-Oct-23 11:34N 40°39' W 074°02'13 1.0
2014-Oct-22 23:03N 40°26' W 074°05'1020.6
2014-Oct-22 22:33N 40°36' W 074°03'6 2.9
2014-Oct-22 20:33N 40°42' W 074°01'5 4.5
2014-Oct-22 19:33N 40°46' W 074°01'0 0.0
2014-Oct-22 18:33N 40°46' W 074°01'0 0.0
2014-Oct-22 17:33N 40°46' W 074°01'0 0.0
2014-Oct-22 16:33N 40°46' W 074°01'0 0.0
2014-Oct-22 15:33N 40°46' W 074°01'1 0.7
2014-Oct-22 14:34N 40°46' W 074°00'11 7.9
2014-Oct-22 13:12N 40°35' W 074°03'3 4.7
2014-Oct-22 12:33N 40°38' W 074°03'1 1.3
2014-Oct-22 11:33N 40°37' W 074°03'1110.9
2014-Oct-22 10:33N 40°26' W 074°05'10 0.8
2014-Oct-21 22:33N 40°36' W 074°03'4 4.3
2014-Oct-21 21:32N 40°31' W 074°03'1010.3
2014-Oct-21 20:34N 40°41' W 074°01'5 5.1
2014-Oct-21 19:32N 40°46' W 074°01'0 0.0
2014-Oct-21 18:33N 40°46' W 074°01'0 0.0
2014-Oct-21 17:33N 40°46' W 074°01'0 0.0
2014-Oct-21 16:33N 40°46' W 074°01'0 0.0
2014-Oct-21 15:31N 40°46' W 074°01'0 0.0
2014-Oct-21 14:33N 40°46' W 074°01'0 0.0
2014-Oct-21 13:33N 40°46' W 074°01'7 6.7
2014-Oct-21 12:34N 40°40' W 074°02'4 3.9
2014-Oct-21 11:33N 40°36' W 074°03'10 9.9
2014-Oct-21 10:33N 40°26' W 074°05'10 0.8
2014-Oct-20 22:33N 40°36' W 074°03'  

Dump ship's entire track history